Time;durP1;ratioP1;P1;durP2;ratioP2;P2;SDS_P1;SDS_P2;PMS_P1;PMS_P2;Temp;Humidity;BMP_temperature;BMP_pressure;BME280_temperature;BME280_humidity;BME280_pressure;Samples;Min_cycle;Max_cycle;Signal;HPM_P1;HPM_P2
2021/10/03 00:01:12;;;;;;;4.30;3.90;;;24.30;46.10;;;;;;5080240;28;20444;-52
2021/10/03 00:03:41;;;;;;;4.80;4.10;;;24.30;45.90;;;;;;5058576;28;20450;-49
2021/10/03 00:06:08;;;;;;;5.27;4.77;;;24.10;45.40;;;;;;5078177;28;20817;-54
2021/10/03 00:08:34;;;;;;;4.57;4.27;;;24.10;46.20;;;;;;5079792;28;20488;-49
2021/10/03 00:11:00;;;;;;;5.00;4.37;;;24.10;46.20;;;;;;5073841;28;20460;-54
2021/10/03 00:13:27;;;;;;;6.33;5.10;;;24.10;46.80;;;;;;5069466;28;20200;-52
2021/10/03 00:15:55;;;;;;;4.50;4.20;;;24.00;46.80;;;;;;5084238;28;20273;-52
2021/10/03 00:18:21;;;;;;;4.73;4.30;;;24.10;46.70;;;;;;5085918;28;20483;-50
2021/10/03 00:20:47;;;;;;;4.17;3.87;;;23.80;46.80;;;;;;5076244;28;20856;-47
2021/10/03 00:23:13;;;;;;;4.40;4.00;;;23.70;46.90;;;;;;5080814;28;20861;-54
2021/10/03 00:25:39;;;;;;;5.00;4.60;;;23.80;46.90;;;;;;5079820;28;20499;-49
2021/10/03 00:28:07;;;;;;;4.40;4.00;;;23.70;46.80;;;;;;5074755;28;20481;-53
2021/10/03 00:30:35;;;;;;;5.40;4.90;;;23.60;47.70;;;;;;5079891;28;20453;-53
2021/10/03 00:33:01;;;;;;;4.77;4.37;;;23.70;47.60;;;;;;5083988;28;20464;-50
2021/10/03 00:35:27;;;;;;;4.50;4.10;;;23.70;47.40;;;;;;5088857;28;20445;-50
2021/10/03 00:37:52;;;;;;;4.20;3.87;;;23.70;47.50;;;;;;5084129;28;20928;-50
2021/10/03 00:40:18;;;;;;;5.20;4.40;;;23.70;47.00;;;;;;5075761;28;20441;-49
2021/10/03 00:42:45;;;;;;;4.40;4.10;;;23.30;47.70;;;;;;5085661;28;20622;-53
2021/10/03 00:45:13;;;;;;;6.67;5.40;;;23.30;48.30;;;;;;5089805;28;20437;-50
2021/10/03 00:47:39;;;;;;;5.10;4.70;;;23.40;48.80;;;;;;5077264;28;20585;-51
2021/10/03 00:50:06;;;;;;;5.40;4.93;;;23.40;48.50;;;;;;5078981;28;20517;-51
2021/10/03 00:52:31;;;;;;;5.80;5.00;;;23.40;48.50;;;;;;5078992;28;20195;-53
2021/10/03 00:54:57;;;;;;;4.63;4.20;;;23.50;48.50;;;;;;5088897;28;20943;-50
2021/10/03 00:57:23;;;;;;;4.43;3.93;;;23.40;48.70;;;;;;5088336;28;20191;-49
2021/10/03 00:59:49;;;;;;;7.60;4.10;;;23.40;48.70;;;;;;5079983;28;20194;-48
2021/10/03 01:02:14;;;;;;;4.83;4.43;;;23.50;48.50;;;;;;5078793;28;20195;-53
2021/10/03 01:04:40;;;;;;;4.03;3.73;;;23.40;48.30;;;;;;5085142;28;20321;-52
2021/10/03 01:07:06;;;;;;;5.27;4.63;;;23.30;48.70;;;;;;5085897;28;20317;-50
2021/10/03 01:09:31;;;;;;;4.87;4.47;;;23.50;48.80;;;;;;5074322;28;20264;-53
2021/10/03 01:11:57;;;;;;;4.33;3.93;;;23.40;48.70;;;;;;5077799;28;20205;-50
2021/10/03 01:14:23;;;;;;;4.27;3.87;;;23.50;48.90;;;;;;5080114;28;20191;-53
2021/10/03 01:16:50;;;;;;;4.47;4.07;;;23.60;48.70;;;;;;5083375;28;20191;-52
2021/10/03 01:19:16;;;;;;;5.13;4.73;;;23.60;48.30;;;;;;5078823;28;20547;-49
2021/10/03 01:21:44;;;;;;;4.30;3.90;;;23.60;48.50;;;;;;5076457;28;20449;-54
2021/10/03 01:24:10;;;;;;;5.00;4.60;;;23.60;48.50;;;;;;5085175;28;20440;-50
2021/10/03 01:26:36;;;;;;;4.53;4.13;;;23.60;48.30;;;;;;5084247;28;20448;-52
2021/10/03 01:29:01;;;;;;;5.07;3.83;;;23.50;48.20;;;;;;5084148;28;20232;-53
2021/10/03 01:31:29;;;;;;;5.00;4.50;;;23.50;48.30;;;;;;5078700;28;20200;-51
2021/10/03 01:33:57;;;;;;;6.17;4.30;;;23.40;48.30;;;;;;5086746;28;20187;-54
2021/10/03 01:36:24;;;;;;;6.10;4.10;;;23.30;48.40;;;;;;5075544;28;20523;-52
2021/10/03 01:38:51;;;;;;;4.27;3.80;;;23.20;48.80;;;;;;5081025;28;20800;-53
2021/10/03 01:41:16;;;;;;;4.87;4.37;;;23.10;48.80;;;;;;5083152;28;20445;-52
2021/10/03 01:43:43;;;;;;;5.20;4.50;;;23.20;49.10;;;;;;5077851;28;20475;-51
2021/10/03 01:46:08;;;;;;;5.67;4.00;;;23.20;49.00;;;;;;5077104;28;20249;-53
2021/10/03 01:48:34;;;;;;;4.50;3.90;;;23.20;48.80;;;;;;5080664;28;20489;-51
2021/10/03 01:51:09;;;;;;;4.13;3.73;;;23.20;49.00;;;;;;5086156;28;20307;-54
2021/10/03 01:53:39;;;;;;;5.57;3.60;;;23.20;48.80;;;;;;5081684;28;20192;-53
2021/10/03 01:56:06;;;;;;;5.00;3.63;;;23.30;49.00;;;;;;5073434;28;21254;-54
2021/10/03 01:58:35;;;;;;;5.80;3.53;;;23.30;48.70;;;;;;5077258;28;20838;-54
2021/10/03 02:01:05;;;;;;;4.43;3.83;;;23.30;48.90;;;;;;5085373;28;20449;-50
2021/10/03 02:03:31;;;;;;;4.30;3.97;;;23.20;48.90;;;;;;5082255;28;20441;-54
2021/10/03 02:05:57;;;;;;;4.10;3.70;;;23.20;48.90;;;;;;5084095;28;20789;-53
2021/10/03 02:08:23;;;;;;;6.40;3.93;;;23.20;49.30;;;;;;5085054;28;20762;-52
2021/10/03 02:10:50;;;;;;;5.00;4.30;;;23.10;49.30;;;;;;5072198;28;20203;-52
2021/10/03 02:13:19;;;;;;;4.70;4.30;;;22.80;49.80;;;;;;5086341;28;20274;-53
2021/10/03 02:15:46;;;;;;;5.20;4.70;;;22.70;50.00;;;;;;5074641;28;20456;-49
2021/10/03 02:18:13;;;;;;;4.47;4.07;;;22.50;50.60;;;;;;5076164;28;20455;-52
2021/10/03 02:20:40;;;;;;;3.57;3.27;;;22.50;50.60;;;;;;5076522;28;20448;-48
2021/10/03 02:23:09;;;;;;;4.93;4.37;;;22.40;51.00;;;;;;5089827;28;20473;-49
2021/10/03 02:25:43;;;;;;;4.20;3.90;;;22.30;50.80;;;;;;5078920;28;20446;-48
2021/10/03 02:28:09;;;;;;;6.73;3.73;;;22.30;51.10;;;;;;5080585;28;20616;-48
2021/10/03 02:30:35;;;;;;;7.03;4.73;;;22.20;50.90;;;;;;5077734;28;20438;-52
2021/10/03 02:33:01;;;;;;;5.73;3.77;;;22.30;51.50;;;;;;5078826;28;20437;-48
2021/10/03 02:35:26;;;;;;;5.33;4.10;;;22.40;51.10;;;;;;5085425;28;20612;-48
2021/10/03 02:37:52;;;;;;;4.10;3.80;;;22.50;50.80;;;;;;5090324;28;20191;-49
2021/10/03 02:40:18;;;;;;;4.30;3.90;;;22.60;50.60;;;;;;5082371;28;20574;-49
2021/10/03 02:42:44;;;;;;;3.90;3.50;;;22.70;50.30;;;;;;5077923;28;20662;-50
2021/10/03 02:45:11;;;;;;;4.70;4.17;;;22.80;50.20;;;;;;5080322;28;20434;-51
2021/10/03 02:47:37;;;;;;;6.87;4.17;;;22.80;50.10;;;;;;5084084;28;20533;-47
2021/10/03 02:50:04;;;;;;;4.87;4.37;;;22.80;50.20;;;;;;5089130;28;20816;-47
2021/10/03 02:52:30;;;;;;;4.43;3.77;;;22.90;50.10;;;;;;5090341;28;20196;-48
2021/10/03 02:54:56;;;;;;;4.50;4.10;;;22.90;49.90;;;;;;5079141;28;20483;-50
2021/10/03 02:57:22;;;;;;;4.10;3.57;;;23.00;49.90;;;;;;5077303;28;20446;-52
2021/10/03 02:59:47;;;;;;;4.30;3.90;;;23.10;49.50;;;;;;5086383;28;20444;-53
2021/10/03 03:02:13;;;;;;;3.70;3.40;;;23.10;49.50;;;;;;5077092;28;20199;-53
2021/10/03 03:04:39;;;;;;;4.03;3.73;;;23.10;49.20;;;;;;5075897;28;20888;-49
2021/10/03 03:07:04;;;;;;;4.03;3.73;;;22.90;48.70;;;;;;5071662;28;20278;-47
2021/10/03 03:09:30;;;;;;;4.17;3.47;;;22.90;49.20;;;;;;5075487;28;20696;-53
2021/10/03 03:11:56;;;;;;;4.60;4.03;;;22.90;49.00;;;;;;5084953;28;20248;-52
2021/10/03 03:14:21;;;;;;;4.73;4.33;;;22.90;48.80;;;;;;5074462;28;20192;-49
2021/10/03 03:16:49;;;;;;;3.77;3.50;;;22.90;48.60;;;;;;5084850;28;20268;-49
2021/10/03 03:19:16;;;;;;;3.87;3.53;;;22.90;49.20;;;;;;5086205;28;20237;-49
2021/10/03 03:21:42;;;;;;;4.83;4.40;;;22.90;49.20;;;;;;5073832;28;20934;-48
2021/10/03 03:24:09;;;;;;;4.80;4.40;;;23.00;49.20;;;;;;5078591;28;20445;-48
2021/10/03 03:26:35;;;;;;;3.80;3.50;;;23.00;49.30;;;;;;5079507;28;20481;-48
2021/10/03 03:29:01;;;;;;;4.70;4.20;;;23.10;49.40;;;;;;5083234;28;20863;-50
2021/10/03 03:31:26;;;;;;;5.90;3.87;;;23.10;48.80;;;;;;5078594;28;20267;-50
2021/10/03 03:33:52;;;;;;;3.53;3.33;;;23.10;48.90;;;;;;5082035;28;20524;-50
2021/10/03 03:36:18;;;;;;;3.73;3.40;;;23.10;48.50;;;;;;5078582;28;20192;-48
2021/10/03 03:38:45;;;;;;;3.60;3.30;;;22.80;48.90;;;;;;5087981;28;20195;-47
2021/10/03 03:41:12;;;;;;;5.13;3.40;;;22.80;49.40;;;;;;5084266;28;20196;-48
2021/10/03 03:43:38;;;;;;;3.97;3.67;;;23.00;49.40;;;;;;5078775;28;20442;-50
2021/10/03 03:46:04;;;;;;;3.53;3.23;;;23.00;48.60;;;;;;5085089;28;20433;-50
2021/10/03 03:48:30;;;;;;;3.80;3.50;;;23.10;48.50;;;;;;5074779;28;20310;-52
2021/10/03 03:50:55;;;;;;;4.13;3.37;;;23.10;48.70;;;;;;5079439;28;20266;-48
2021/10/03 03:53:21;;;;;;;4.23;3.40;;;23.10;48.20;;;;;;5077424;28;20191;-50
2021/10/03 03:55:47;;;;;;;3.60;3.30;;;22.90;48.40;;;;;;5078230;28;20195;-51
2021/10/03 03:58:12;;;;;;;3.97;3.57;;;23.00;48.40;;;;;;5084666;28;20244;-52
2021/10/03 04:00:38;;;;;;;3.27;2.97;;;23.00;48.30;;;;;;5083510;28;20188;-49
2021/10/03 04:03:03;;;;;;;6.63;3.40;;;23.00;48.80;;;;;;5084213;28;20231;-49
2021/10/03 04:05:29;;;;;;;3.97;3.10;;;22.90;48.30;;;;;;5083288;28;20242;-47
2021/10/03 04:07:55;;;;;;;3.50;3.20;;;22.80;47.90;;;;;;5081590;28;20243;-47
2021/10/03 04:10:20;;;;;;;4.27;3.40;;;22.70;47.60;;;;;;5090048;28;20240;-50
2021/10/03 04:12:46;;;;;;;4.23;3.10;;;22.60;48.80;;;;;;5077479;28;20539;-50
2021/10/03 04:15:12;;;;;;;3.30;3.00;;;22.70;48.00;;;;;;5081907;28;20203;-48
2021/10/03 04:17:37;;;;;;;3.73;3.40;;;22.70;48.20;;;;;;5075491;28;20206;-47
2021/10/03 04:20:05;;;;;;;3.80;3.40;;;22.80;48.10;;;;;;5077285;28;20196;-48
2021/10/03 04:22:31;;;;;;;3.73;3.33;;;22.80;48.00;;;;;;5084788;28;20195;-47
2021/10/03 04:24:57;;;;;;;4.37;3.97;;;22.90;48.80;;;;;;5084083;28;22203;-47
2021/10/03 04:27:22;;;;;;;4.23;3.83;;;22.90;48.60;;;;;;5084391;28;20770;-47
2021/10/03 04:29:48;;;;;;;3.70;3.40;;;23.00;48.50;;;;;;5083928;28;20219;-49
2021/10/03 04:32:14;;;;;;;3.90;3.60;;;23.00;47.90;;;;;;5089533;28;20262;-49
2021/10/03 04:34:39;;;;;;;3.53;3.20;;;23.00;47.00;;;;;;5082622;28;20192;-47
2021/10/03 04:37:05;;;;;;;3.37;3.07;;;23.00;47.60;;;;;;5075374;28;20652;-50
2021/10/03 04:39:32;;;;;;;3.40;3.10;;;22.90;47.40;;;;;;5089168;28;20187;-48
2021/10/03 04:41:58;;;;;;;4.53;3.40;;;23.00;47.20;;;;;;5090260;28;20303;-48
2021/10/03 04:44:24;;;;;;;3.93;3.27;;;22.90;46.00;;;;;;5081890;28;20450;-48
2021/10/03 04:46:50;;;;;;;4.23;3.80;;;22.80;46.80;;;;;;5082807;28;20941;-48
2021/10/03 04:49:15;;;;;;;3.60;3.30;;;22.90;47.40;;;;;;5082003;28;20203;-47
2021/10/03 04:51:41;;;;;;;3.20;3.00;;;22.90;47.30;;;;;;5088444;28;20207;-51
2021/10/03 04:54:06;;;;;;;4.60;3.70;;;22.80;46.50;;;;;;5074347;28;20196;-47
2021/10/03 04:56:32;;;;;;;3.77;3.47;;;22.40;47.20;;;;;;5079024;28;20191;-48
2021/10/03 04:58:58;;;;;;;3.40;3.10;;;22.20;47.80;;;;;;5082991;28;20906;-48
2021/10/03 05:01:23;;;;;;;3.30;3.00;;;22.20;47.90;;;;;;5083242;28;20195;-51
2021/10/03 05:03:49;;;;;;;3.93;3.57;;;22.10;47.60;;;;;;5082440;28;20204;-51
2021/10/03 05:06:15;;;;;;;3.13;2.87;;;21.90;47.50;;;;;;5083507;28;20621;-48
2021/10/03 05:08:41;;;;;;;26.77;3.90;;;21.90;47.20;;;;;;5084701;28;20654;-48
2021/10/03 05:11:06;;;;;;;4.60;3.20;;;22.10;47.50;;;;;;5081047;28;20199;-50
2021/10/03 05:13:33;;;;;;;3.50;2.93;;;22.30;47.40;;;;;;5079232;28;20203;-47
2021/10/03 05:15:59;;;;;;;3.77;3.20;;;22.50;47.80;;;;;;5074017;28;20187;-47
2021/10/03 05:18:25;;;;;;;2.90;2.70;;;22.50;46.50;;;;;;5081552;28;20534;-46
2021/10/03 05:20:51;;;;;;;7.73;4.00;;;22.60;46.50;;;;;;5090956;28;20939;-49
2021/10/03 05:23:17;;;;;;;6.77;4.10;;;22.60;46.20;;;;;;5076669;28;20442;-48
2021/10/03 05:25:43;;;;;;;5.10;4.17;;;22.70;46.90;;;;;;5082772;28;20708;-47
2021/10/03 05:28:08;;;;;;;8.70;4.20;;;22.60;46.30;;;;;;5073393;28;20558;-49
2021/10/03 05:30:34;;;;;;;10.90;3.90;;;22.70;47.20;;;;;;5079314;28;20191;-48
2021/10/03 05:32:59;;;;;;;5.60;4.80;;;22.70;47.10;;;;;;5089480;28;20233;-49
2021/10/03 05:35:25;;;;;;;4.40;4.00;;;22.80;46.70;;;;;;5077141;28;20198;-48
2021/10/03 05:37:51;;;;;;;4.23;3.83;;;22.90;46.30;;;;;;5083263;28;20198;-48
2021/10/03 05:40:18;;;;;;;3.70;3.40;;;22.80;45.40;;;;;;5084656;28;21015;-48
2021/10/03 05:42:44;;;;;;;5.17;3.50;;;22.80;45.80;;;;;;5077298;28;20187;-48
2021/10/03 05:45:10;;;;;;;6.07;3.70;;;22.80;45.70;;;;;;5076835;28;20449;-47
2021/10/03 05:47:36;;;;;;;3.77;3.47;;;22.80;45.40;;;;;;5074474;28;20493;-49
2021/10/03 05:50:04;;;;;;;3.70;3.40;;;22.60;46.40;;;;;;5078197;28;20448;-47
2021/10/03 05:52:29;;;;;;;3.40;3.10;;;22.20;46.20;;;;;;5077936;28;20200;-47
2021/10/03 05:54:55;;;;;;;3.73;3.00;;;22.20;46.70;;;;;;5080427;28;20499;-49
2021/10/03 05:57:20;;;;;;;3.23;3.03;;;22.30;46.70;;;;;;5088328;28;20712;-47
2021/10/03 05:59:46;;;;;;;3.20;2.93;;;22.40;46.90;;;;;;5086724;28;20183;-48
2021/10/03 06:02:11;;;;;;;3.47;3.10;;;22.40;46.80;;;;;;5090721;28;20195;-48
2021/10/03 06:04:37;;;;;;;3.20;2.90;;;22.50;46.50;;;;;;5082423;28;20669;-51
2021/10/03 06:07:05;;;;;;;3.63;3.33;;;22.60;46.80;;;;;;5085555;28;20253;-48
2021/10/03 06:09:31;;;;;;;4.33;3.47;;;22.60;46.70;;;;;;5085083;28;20234;-47
2021/10/03 06:11:56;;;;;;;3.27;2.97;;;22.60;47.00;;;;;;5088147;28;20465;-47
2021/10/03 06:14:22;;;;;;;3.57;3.27;;;22.70;46.80;;;;;;5084809;28;20570;-51
2021/10/03 06:16:48;;;;;;;3.27;2.90;;;22.80;46.70;;;;;;5079980;28;20206;-48
2021/10/03 06:19:14;;;;;;;3.77;3.40;;;22.80;46.30;;;;;;5080882;28;20218;-48
2021/10/03 06:21:40;;;;;;;3.70;3.30;;;22.90;46.20;;;;;;5084952;28;20426;-47
2021/10/03 06:24:07;;;;;;;3.33;2.43;;;23.00;46.20;;;;;;5079068;28;20433;-51
2021/10/03 06:26:33;;;;;;;3.33;3.03;;;23.00;46.10;;;;;;5086030;28;20195;-47
2021/10/03 06:28:58;;;;;;;3.20;2.90;;;23.00;46.30;;;;;;5045327;28;1080334;-47
2021/10/03 06:31:24;;;;;;;5.20;3.33;;;23.00;46.70;;;;;;5085031;28;20282;-48
2021/10/03 06:33:50;;;;;;;3.70;2.90;;;23.00;46.60;;;;;;5089199;28;20241;-48
2021/10/03 06:36:15;;;;;;;3.97;2.83;;;23.00;46.80;;;;;;5088473;28;20202;-49
2021/10/03 06:38:41;;;;;;;4.67;3.70;;;23.00;46.70;;;;;;5087840;28;20270;-47
2021/10/03 06:41:07;;;;;;;3.30;3.07;;;23.00;46.90;;;;;;5087689;28;20692;-48
2021/10/03 06:43:35;;;;;;;3.10;2.80;;;23.00;47.00;;;;;;5083847;28;20195;-48
2021/10/03 06:46:04;;;;;;;3.33;3.03;;;23.00;47.10;;;;;;5083878;28;20278;-48
2021/10/03 06:48:31;;;;;;;2.80;2.60;;;23.10;47.30;;;;;;5075511;28;20571;-48
2021/10/03 06:50:57;;;;;;;3.30;3.10;;;23.20;46.90;;;;;;5086019;28;20498;-51
2021/10/03 06:53:23;;;;;;;3.03;2.80;;;23.40;46.40;;;;;;5082748;28;20509;-47
2021/10/03 06:55:48;;;;;;;3.73;3.43;;;23.60;46.40;;;;;;5084154;28;20540;-50
2021/10/03 06:58:14;;;;;;;3.20;3.00;;;23.70;45.70;;;;;;5085513;28;20669;-47
2021/10/03 07:00:39;;;;;;;2.80;2.60;;;23.80;45.40;;;;;;5088580;28;20206;-49
2021/10/03 07:03:05;;;;;;;3.87;3.27;;;23.80;44.50;;;;;;5086057;28;20206;-50
2021/10/03 07:05:31;;;;;;;2.27;2.07;;;23.70;44.90;;;;;;5083529;28;20266;-47
2021/10/03 07:07:56;;;;;;;3.00;2.80;;;23.60;45.60;;;;;;5085552;28;20302;-48
2021/10/03 07:10:22;;;;;;;3.20;2.53;;;23.70;45.50;;;;;;5080399;28;20195;-48
2021/10/03 07:12:48;;;;;;;3.13;2.90;;;23.80;45.00;;;;;;5083732;28;20205;-47
2021/10/03 07:15:13;;;;;;;3.60;2.70;;;24.00;45.30;;;;;;5087822;28;20248;-51
2021/10/03 07:17:39;;;;;;;3.10;2.80;;;24.10;45.60;;;;;;5081082;28;20195;-50
2021/10/03 07:20:06;;;;;;;3.70;2.80;;;24.20;45.70;;;;;;5082028;28;20193;-46
2021/10/03 07:22:31;;;;;;;3.60;3.30;;;24.20;46.70;;;;;;5085757;28;20633;-49
2021/10/03 07:24:57;;;;;;;3.10;2.90;;;24.30;46.50;;;;;;5086797;28;20467;-47
2021/10/03 07:27:23;;;;;;;4.10;3.07;;;24.30;46.10;;;;;;5090116;28;20250;-47
2021/10/03 07:29:49;;;;;;;2.97;2.67;;;24.40;45.20;;;;;;5094417;28;20266;-49
2021/10/03 07:32:16;;;;;;;3.13;2.90;;;24.50;45.30;;;;;;5095126;28;20187;-48
2021/10/03 07:34:42;;;;;;;2.90;2.70;;;24.50;44.90;;;;;;5085156;28;20197;-50
2021/10/03 07:37:07;;;;;;;2.97;2.70;;;24.50;44.20;;;;;;5094488;28;20436;-47
2021/10/03 07:39:34;;;;;;;2.80;2.60;;;24.60;43.70;;;;;;5087076;28;20621;-47
2021/10/03 07:42:00;;;;;;;2.93;2.70;;;24.60;44.70;;;;;;5094783;28;20199;-48
2021/10/03 07:44:26;;;;;;;3.10;2.90;;;24.60;45.10;;;;;;5092637;28;20429;-47
2021/10/03 07:46:52;;;;;;;2.93;2.30;;;24.60;44.60;;;;;;5084630;28;20502;-47
2021/10/03 07:49:17;;;;;;;5.60;2.80;;;24.50;43.70;;;;;;5088184;28;20211;-49
2021/10/03 07:51:43;;;;;;;2.93;2.63;;;24.50;43.10;;;;;;5081389;28;20199;-50
2021/10/03 07:54:09;;;;;;;2.80;2.60;;;24.50;43.10;;;;;;5092417;28;20310;-49
2021/10/03 07:56:35;;;;;;;2.43;2.27;;;24.50;43.70;;;;;;5090420;28;20643;-49
2021/10/03 07:59:00;;;;;;;2.67;2.47;;;24.40;44.20;;;;;;5081439;28;20441;-51
2021/10/03 08:01:26;;;;;;;2.93;2.73;;;24.20;43.50;;;;;;5079228;28;20546;-47
2021/10/03 08:03:52;;;;;;;3.47;3.17;;;24.20;43.80;;;;;;5087115;28;20230;-46
2021/10/03 08:06:17;;;;;;;3.03;2.83;;;24.30;44.90;;;;;;5087855;28;20674;-48
2021/10/03 08:08:44;;;;;;;3.57;2.60;;;24.40;46.60;;;;;;5088578;28;20297;-47
2021/10/03 08:11:09;;;;;;;3.63;2.80;;;24.40;46.40;;;;;;5079513;28;20314;-48
2021/10/03 08:13:35;;;;;;;3.07;2.73;;;24.30;46.60;;;;;;5075040;28;20587;-47
2021/10/03 08:16:01;;;;;;;3.40;2.77;;;24.30;46.00;;;;;;5084974;28;20187;-47
2021/10/03 08:18:27;;;;;;;2.83;2.63;;;24.50;45.80;;;;;;5080205;28;20697;-46
2021/10/03 08:20:52;;;;;;;3.07;2.87;;;24.60;45.40;;;;;;5076622;28;20203;-48
2021/10/03 08:23:18;;;;;;;3.23;2.90;;;24.60;45.60;;;;;;5086029;28;20187;-51
2021/10/03 08:25:45;;;;;;;3.20;2.60;;;24.60;44.90;;;;;;5082898;28;20183;-48
2021/10/03 08:28:11;;;;;;;3.60;2.80;;;24.70;45.00;;;;;;5091847;28;22423;-47
2021/10/03 08:30:36;;;;;;;3.13;2.20;;;24.80;45.60;;;;;;5085002;28;20440;-47
2021/10/03 08:33:02;;;;;;;3.50;1.93;;;24.70;44.90;;;;;;5091621;28;20572;-47
2021/10/03 08:35:28;;;;;;;2.90;2.70;;;24.60;44.40;;;;;;5079436;28;20227;-47
2021/10/03 08:37:54;;;;;;;2.60;2.40;;;24.30;43.50;;;;;;5089908;28;20456;-48
2021/10/03 08:40:19;;;;;;;5.10;2.27;;;24.10;43.80;;;;;;5086456;28;20241;-47
2021/10/03 08:42:45;;;;;;;2.80;2.60;;;24.10;43.80;;;;;;5086796;28;20195;-47
2021/10/03 08:45:11;;;;;;;2.40;2.20;;;24.10;43.20;;;;;;5085734;28;20195;-48
2021/10/03 08:47:40;;;;;;;2.70;2.50;;;24.10;43.20;;;;;;5093526;28;20219;-49
2021/10/03 08:50:10;;;;;;;2.50;2.30;;;24.10;43.00;;;;;;5091531;28;20215;-49
2021/10/03 08:52:37;;;;;;;2.60;2.40;;;24.10;43.10;;;;;;5079949;28;20441;-47
2021/10/03 08:55:03;;;;;;;7.43;2.53;;;24.20;42.90;;;;;;5073474;28;20430;-47
2021/10/03 08:57:30;;;;;;;4.20;3.10;;;24.30;42.70;;;;;;5085058;28;20473;-47
2021/10/03 09:00:07;;;;;;;2.90;2.60;;;24.30;43.10;;;;;;5084524;28;20981;-47
2021/10/03 09:03:04;;;;;;;4.27;3.37;;;24.50;43.20;;;;;;5091602;28;20452;-47
2021/10/03 09:05:35;;;;;;;2.37;2.17;;;24.60;44.50;;;;;;5077847;28;20916;-47
2021/10/03 09:08:05;;;;;;;3.17;2.87;;;24.80;44.80;;;;;;5084742;28;20489;-47
2021/10/03 09:11:15;;;;;;;2.60;2.40;;;24.80;44.50;;;;;;5092735;28;20463;-47
2021/10/03 09:13:42;;;;;;;5.60;3.17;;;24.90;44.60;;;;;;5078923;28;20461;-47
2021/10/03 09:16:17;;;;;;;2.63;2.43;;;25.00;44.60;;;;;;5092925;28;20465;-47
2021/10/03 09:18:51;;;;;;;3.00;2.80;;;24.90;42.80;;;;;;5088683;28;20474;-49
2021/10/03 09:21:29;;;;;;;3.40;2.80;;;24.80;43.20;;;;;;5076263;28;20440;-47
2021/10/03 09:24:00;;;;;;;2.90;2.70;;;24.90;44.20;;;;;;5075465;28;20925;-47
2021/10/03 09:26:27;;;;;;;3.27;2.97;;;25.00;44.20;;;;;;5086409;28;20434;-47
2021/10/03 09:28:52;;;;;;;2.70;2.50;;;25.00;44.00;;;;;;5078976;28;20490;-50
2021/10/03 09:31:18;;;;;;;2.77;2.57;;;25.00;43.20;;;;;;5082635;28;20579;-47
2021/10/03 09:33:54;;;;;;;3.30;3.00;;;25.10;43.40;;;;;;5084528;28;20656;-47
2021/10/03 09:36:33;;;;;;;2.67;2.47;;;25.00;43.50;;;;;;5082672;28;20207;-47
2021/10/03 09:39:00;;;;;;;3.00;2.77;;;24.90;44.10;;;;;;5084994;28;20457;-46
2021/10/03 09:41:34;;;;;;;4.10;2.50;;;24.90;44.20;;;;;;5084171;28;20438;-47
2021/10/03 09:44:11;;;;;;;2.60;2.40;;;24.90;44.30;;;;;;5082982;28;20468;-45
2021/10/03 09:46:47;;;;;;;3.40;3.20;;;24.90;44.00;;;;;;5090135;28;20488;-45
2021/10/03 09:49:19;;;;;;;2.57;2.27;;;24.90;43.80;;;;;;5087422;28;21259;-46
2021/10/03 09:51:49;;;;;;;2.43;2.23;;;25.00;43.90;;;;;;5089683;28;20429;-49
2021/10/03 09:54:16;;;;;;;2.87;2.67;;;24.90;43.80;;;;;;5090048;28;20434;-48
2021/10/03 09:56:43;;;;;;;2.30;2.10;;;24.90;43.60;;;;;;5082990;28;20438;-48
2021/10/03 09:59:09;;;;;;;2.60;2.40;;;24.80;43.40;;;;;;5087350;28;20429;-51
2021/10/03 10:01:38;;;;;;;1.70;1.60;;;24.80;43.50;;;;;;5088085;28;20449;-49
2021/10/03 10:04:07;;;;;;;2.63;2.43;;;24.90;43.40;;;;;;5088535;28;20286;-45
2021/10/03 10:06:33;;;;;;;2.10;2.00;;;24.90;42.90;;;;;;5078294;28;20815;-45
2021/10/03 10:09:09;;;;;;;2.43;2.23;;;25.00;42.80;;;;;;5085305;28;20830;-46
2021/10/03 10:12:01;;;;;;;2.50;2.30;;;24.90;42.80;;;;;;5088618;28;20436;-45
2021/10/03 10:14:31;;;;;;;5.80;2.60;;;25.10;43.10;;;;;;5078123;28;20437;-48
2021/10/03 10:17:03;;;;;;;2.97;2.77;;;24.90;43.40;;;;;;5075503;28;20426;-45
2021/10/03 10:19:33;;;;;;;3.40;2.67;;;25.10;43.60;;;;;;5090619;28;20788;-46
2021/10/03 10:22:35;;;;;;;3.87;3.03;;;25.10;45.40;;;;;;5084011;28;20430;-46
2021/10/03 10:25:03;;;;;;;3.30;2.53;;;25.20;45.80;;;;;;5007683;28;20874;-45
2021/10/03 10:27:28;;;;;;;3.27;2.97;;;25.30;46.20;;;;;;5066882;28;20483;-45
2021/10/03 10:30:05;;;;;;;2.87;2.67;;;25.30;45.90;;;;;;5082228;28;20544;-45
2021/10/03 10:32:33;;;;;;;2.73;2.53;;;25.30;46.60;;;;;;5078585;28;20196;-47
2021/10/03 10:35:11;;;;;;;4.80;3.63;;;25.10;46.50;;;;;;5075542;28;21093;-48
2021/10/03 10:40:23;;;;;;;5.40;3.23;;;25.20;46.40;;;;;;5082260;28;20441;-45
2021/10/03 10:42:57;;;;;;;3.70;2.80;;;25.20;46.20;;;;;;5083236;28;20540;-47
2021/10/03 10:45:33;;;;;;;2.73;2.53;;;25.00;45.90;;;;;;5084460;28;20445;-48
2021/10/03 10:48:13;;;;;;;3.27;2.97;;;25.10;46.00;;;;;;5079836;28;20496;-47
2021/10/03 10:50:50;;;;;;;2.83;2.63;;;25.30;46.00;;;;;;5086168;28;21122;-49
2021/10/03 10:53:32;;;;;;;2.90;2.70;;;25.20;46.00;;;;;;5076499;28;20793;-47
2021/10/03 10:56:08;;;;;;;4.43;2.60;;;25.20;46.10;;;;;;5085776;28;20437;-54
2021/10/03 10:58:58;;;;;;;4.03;2.93;;;25.30;46.10;;;;;;5086011;28;20433;-54
2021/10/03 11:01:29;;;;;;;3.53;3.27;;;25.40;46.10;;;;;;5089672;28;20440;-48
2021/10/03 11:03:57;;;;;;;3.10;2.60;;;25.60;45.80;;;;;;5085272;28;20870;-48
2021/10/03 11:06:23;;;;;;;3.20;2.87;;;25.50;45.70;;;;;;5076183;28;20430;-48
2021/10/03 11:09:00;;;;;;;4.03;2.70;;;25.30;46.00;;;;;;5087035;28;20527;-47
2021/10/03 11:11:27;;;;;;;3.23;3.03;;;25.30;46.30;;;;;;5085952;28;20197;-48
2021/10/03 11:13:55;;;;;;;2.70;2.50;;;25.30;46.10;;;;;;5087901;28;20778;-49
2021/10/03 11:16:23;;;;;;;3.10;2.90;;;25.20;46.10;;;;;;5090313;28;20486;-48
2021/10/03 11:18:55;;;;;;;4.20;2.90;;;25.30;46.30;;;;;;5073653;28;20431;-49
2021/10/03 11:21:31;;;;;;;3.57;2.93;;;25.40;46.80;;;;;;5084482;28;20473;-50
2021/10/03 11:24:03;;;;;;;3.30;3.10;;;25.60;45.90;;;;;;5090770;28;20437;-45
2021/10/03 11:26:54;;;;;;;4.30;2.67;;;25.60;45.90;;;;;;5090149;28;20449;-47
2021/10/03 11:29:28;;;;;;;3.33;3.03;;;25.70;46.10;;;;;;5088385;28;20473;-46
2021/10/03 11:32:03;;;;;;;4.40;3.80;;;25.70;46.10;;;;;;5076284;28;20441;-46
2021/10/03 11:34:39;;;;;;;3.43;2.83;;;25.80;46.20;;;;;;5071412;28;20445;-46
2021/10/03 11:37:23;;;;;;;5.90;3.13;;;25.70;46.30;;;;;;5089009;28;20436;-45
2021/10/03 11:39:55;;;;;;;3.60;2.70;;;25.60;45.70;;;;;;5087177;28;21030;-45
2021/10/03 11:42:27;;;;;;;3.03;2.80;;;25.50;46.00;;;;;;5086378;28;20437;-49
2021/10/03 11:45:10;;;;;;;4.17;2.53;;;25.70;45.90;;;;;;5083629;28;20441;-46
2021/10/03 11:47:38;;;;;;;3.07;2.77;;;25.60;46.40;;;;;;5084140;28;20468;-45
2021/10/03 11:50:04;;;;;;;2.93;2.73;;;25.70;46.10;;;;;;5085065;28;20794;-45
2021/10/03 11:52:34;;;;;;;3.50;3.20;;;25.80;45.90;;;;;;5088142;28;20477;-45
2021/10/03 11:55:10;;;;;;;3.30;3.00;;;25.80;45.60;;;;;;5088589;28;20442;-47
2021/10/03 11:57:40;;;;;;;3.87;3.30;;;25.80;45.40;;;;;;5089227;28;20932;-46
2021/10/03 12:00:16;;;;;;;3.97;3.50;;;25.90;45.60;;;;;;5082899;28;20433;-47
2021/10/03 12:02:47;;;;;;;5.70;4.50;;;25.90;45.40;;;;;;5088390;28;20786;-52
2021/10/03 12:05:18;;;;;;;4.20;3.80;;;25.90;45.50;;;;;;5073954;28;21032;-46
2021/10/03 12:07:44;;;;;;;4.03;3.73;;;25.80;45.60;;;;;;5077812;28;20481;-46
2021/10/03 12:10:12;;;;;;;6.03;3.80;;;25.80;45.60;;;;;;5083847;28;20868;-46
2021/10/03 12:12:55;;;;;;;3.80;3.50;;;25.70;45.90;;;;;;5088723;28;20279;-46
2021/10/03 12:15:34;;;;;;;4.97;3.30;;;25.60;46.30;;;;;;5085517;28;20438;-46
2021/10/03 12:18:00;;;;;;;5.50;3.20;;;25.50;46.60;;;;;;5093415;28;20442;-46
2021/10/03 12:20:46;;;;;;;11.20;3.80;;;25.40;46.90;;;;;;5076347;28;20422;-45
2021/10/03 12:23:12;;;;;;;16.57;3.77;;;25.30;47.30;;;;;;5084702;28;20195;-46
2021/10/03 12:25:39;;;;;;;15.27;6.60;;;25.30;47.30;;;;;;5092059;28;20429;-45
2021/10/03 12:28:05;;;;;;;11.53;6.23;;;25.40;47.20;;;;;;5079279;28;20241;-46
2021/10/03 12:30:54;;;;;;;10.47;4.70;;;25.20;47.20;;;;;;5082584;28;20799;-45
2021/10/03 12:33:21;;;;;;;7.73;4.63;;;25.30;47.50;;;;;;5089507;28;20659;-49
2021/10/03 12:36:03;;;;;;;7.77;3.63;;;25.20;47.80;;;;;;5086128;28;20528;-46
2021/10/03 12:38:30;;;;;;;7.67;3.43;;;25.40;47.80;;;;;;5083293;28;20449;-50
2021/10/03 12:40:57;;;;;;;5.53;4.07;;;25.30;48.00;;;;;;5083014;28;20422;-49
2021/10/03 12:43:25;;;;;;;6.00;3.90;;;25.10;48.60;;;;;;5086095;28;20440;-48
2021/10/03 12:45:51;;;;;;;3.90;3.37;;;25.10;48.90;;;;;;5079698;28;20429;-50
2021/10/03 12:48:17;;;;;;;4.80;3.37;;;25.20;48.80;;;;;;5088540;28;20509;-47
2021/10/03 12:50:45;;;;;;;3.80;3.50;;;25.30;48.60;;;;;;5088942;28;20433;-49
2021/10/03 12:53:11;;;;;;;4.60;3.50;;;25.40;48.30;;;;;;5089825;28;20520;-51